createdAt,value
2022-09-20T03:17:14.414Z,31.33
2022-09-20T03:19:54.779Z,35.63
2022-09-20T03:22:33.890Z,33.10
2022-09-20T03:25:23.952Z,34.45
2022-09-20T03:28:04.897Z,36.83
2022-09-20T03:30:45.459Z,36.47
2022-09-20T03:33:23.410Z,37.88
2022-09-20T03:36:02.691Z,34.33
2022-09-20T03:38:45.040Z,25.13
2022-09-20T03:41:46.608Z,29.80
2022-09-20T03:44:32.669Z,32.67
2022-09-20T03:47:13.272Z,28.77
2022-09-20T03:50:14.378Z,30.13
2022-09-20T03:52:58.625Z,27.88
2022-09-20T03:55:47.255Z,24.98
2022-09-20T03:58:30.265Z,30.75
2022-09-20T04:01:17.500Z,27.65
2022-09-20T04:03:54.110Z,24.50
2022-09-20T04:06:50.767Z,28.42
2022-09-20T04:09:48.549Z,25.55
2022-09-20T04:12:27.255Z,30.85
2022-09-20T04:15:06.022Z,28.23
2022-09-20T04:17:50.689Z,29.50
2022-09-20T04:20:24.272Z,26.85
2022-09-20T04:22:58.697Z,24.23
2022-09-20T04:25:34.717Z,22.05
2022-09-20T04:28:09.834Z,29.30
2022-09-20T04:30:44.120Z,21.65
2022-09-20T04:33:20.677Z,24.10
2022-09-20T04:36:16.829Z,22.73
2022-09-20T04:38:54.532Z,27.23
2022-09-20T04:41:46.269Z,24.52
2022-09-20T04:44:36.418Z,25.13
2022-09-20T04:47:50.928Z,24.45
2022-09-20T04:50:34.135Z,24.77
2022-09-20T04:53:38.614Z,22.08
2022-09-20T04:56:20.906Z,21.58
2022-09-20T04:59:06.998Z,22.73
2022-09-20T05:02:14.205Z,24.85
2022-09-20T05:05:24.487Z,20.17
2022-09-20T05:08:40.732Z,19.23
2022-09-20T05:11:38.547Z,18.95
2022-09-20T05:14:24.918Z,21.00
2022-09-20T05:17:11.670Z,23.27
2022-09-20T05:19:49.553Z,20.48
2022-09-20T05:22:55.665Z,20.65
2022-09-20T05:25:45.174Z,19.50
2022-09-20T05:28:21.826Z,24.75
2022-09-20T05:30:54.511Z,20.42
2022-09-20T05:33:29.915Z,21.65
2022-09-20T05:36:07.965Z,19.33
2022-09-20T05:38:48.064Z,19.40
2022-09-20T05:41:25.033Z,24.05
2022-09-20T05:44:03.306Z,18.95
2022-09-20T05:46:46.474Z,19.50
2022-09-20T05:49:27.473Z,21.25
2022-09-20T05:52:15.645Z,20.10
2022-09-20T05:55:20.798Z,21.42
2022-09-20T05:58:09.293Z,20.98
2022-09-20T06:00:42.933Z,21.45
2022-09-20T06:03:19.371Z,19.98
2022-09-20T06:05:56.616Z,19.33
2022-09-20T06:08:46.719Z,20.38
2022-09-20T06:11:39.043Z,18.90
2022-09-20T06:14:20.139Z,17.70
2022-09-20T06:16:54.865Z,20.17
2022-09-20T06:19:36.002Z,17.58
2022-09-20T06:22:14.046Z,16.63
2022-09-20T06:24:48.087Z,18.50
2022-09-20T06:27:22.122Z,18.60
2022-09-20T06:29:54.764Z,20.52
2022-09-20T06:32:22.879Z,17.80
2022-09-20T06:34:52.985Z,18.52
2022-09-20T06:37:52.589Z,16.02
2022-09-20T06:40:51.526Z,20.08
2022-09-20T06:43:19.630Z,15.10
2022-09-20T06:45:48.247Z,16.15
2022-09-20T06:48:16.481Z,15.15
2022-09-20T06:50:46.349Z,15.43
2022-09-20T06:53:18.865Z,15.88
2022-09-20T06:55:48.298Z,16.02
2022-09-20T06:58:16.705Z,13.35
2022-09-20T07:00:45.496Z,14.35
2022-09-20T07:03:13.969Z,16.42
2022-09-20T07:05:45.069Z,15.27
2022-09-20T07:08:21.072Z,13.18
2022-09-20T07:10:49.478Z,13.48
2022-09-20T07:13:20.302Z,14.55
2022-09-20T07:15:48.951Z,15.13
2022-09-20T07:18:17.752Z,13.75
2022-09-20T07:20:46.104Z,12.32
2022-09-20T07:23:19.426Z,13.27
2022-09-20T07:25:47.865Z,14.23
2022-09-20T07:28:16.412Z,12.70
2022-09-20T07:30:44.790Z,13.70
2022-09-20T07:33:17.348Z,12.07
2022-09-20T07:35:45.564Z,13.43
2022-09-20T07:38:15.504Z,17.67
2022-09-20T07:40:44.021Z,13.40
2022-09-20T07:43:12.399Z,14.80
2022-09-20T07:45:42.025Z,13.00
2022-09-20T07:48:10.257Z,13.68
2022-09-20T07:50:38.937Z,12.20
2022-09-20T07:53:07.258Z,13.10
2022-09-20T07:55:37.195Z,13.32
2022-09-20T07:58:05.377Z,11.10
2022-09-20T08:00:33.543Z,12.50
2022-09-20T08:03:01.884Z,12.32
2022-09-20T08:05:31.288Z,15.52
2022-09-20T08:08:01.184Z,11.15
2022-09-20T08:10:29.528Z,11.85
2022-09-20T08:15:51.830Z,11.10
2022-09-20T08:18:20.061Z,12.70
2022-09-20T08:20:48.929Z,12.02
2022-09-20T08:23:23.762Z,13.93
2022-09-20T08:25:52.478Z,12.30
2022-09-20T08:28:22.159Z,11.15
2022-09-20T08:30:50.573Z,10.27
2022-09-20T08:33:18.911Z,12.70
2022-09-20T08:35:50.241Z,8.20
2022-09-20T08:41:13.465Z,9.57
2022-09-20T08:43:48.482Z,10.90
2022-09-20T08:46:23.254Z,10.88
2022-09-20T08:48:54.627Z,9.25
2022-09-20T08:51:30.562Z,10.18
2022-09-20T08:54:03.283Z,11.30
2022-09-20T08:56:39.062Z,11.95
2022-09-20T08:59:20.119Z,12.00
2022-09-20T09:01:50.161Z,10.85
2022-09-20T09:04:21.450Z,13.35
2022-09-20T09:06:51.311Z,15.48
2022-09-20T09:09:23.445Z,11.90
2022-09-20T09:11:53.087Z,15.02
2022-09-20T09:14:47.274Z,13.65
2022-09-20T09:17:27.585Z,9.73
2022-09-20T09:19:58.002Z,13.15
2022-09-20T09:22:32.884Z,11.35
2022-09-20T09:25:24.517Z,9.73
2022-09-20T09:27:55.133Z,11.32
2022-09-20T09:30:29.316Z,11.88
2022-09-20T09:33:24.089Z,15.35
2022-09-20T09:36:00.262Z,15.55
2022-09-20T09:38:32.795Z,15.98
2022-09-20T09:41:05.156Z,11.45
2022-09-20T09:43:37.528Z,11.73
2022-09-20T09:46:23.390Z,12.18
2022-09-20T09:49:12.399Z,9.48
2022-09-20T09:52:01.785Z,12.68
2022-09-20T09:54:33.802Z,12.75
2022-09-20T09:57:17.227Z,21.17
2022-09-20T10:00:13.493Z,14.30
2022-09-20T10:03:19.164Z,16.88
2022-09-20T10:06:04.715Z,18.20
2022-09-20T10:08:47.356Z,22.17
2022-09-20T10:11:40.155Z,21.45
2022-09-20T10:14:31.592Z,18.58
2022-09-20T10:17:33.378Z,24.92
2022-09-20T10:20:22.986Z,17.40
2022-09-20T10:26:02.342Z,14.73
2022-09-20T10:28:59.365Z,12.73
2022-09-20T10:31:55.126Z,11.25
2022-09-20T10:34:47.534Z,11.57
2022-09-20T10:37:23.443Z,11.70
2022-09-20T10:40:11.158Z,14.07
2022-09-20T10:43:06.213Z,13.07
2022-09-20T10:48:50.687Z,10.95
2022-09-20T10:51:28.414Z,9.23
2022-09-20T10:54:09.689Z,7.47
2022-09-20T10:56:45.271Z,15.45
2022-09-20T10:59:44.323Z,9.57
2022-09-20T11:02:37.138Z,9.48
2022-09-20T11:05:27.359Z,14.50
2022-09-20T11:08:04.810Z,6.50
2022-09-20T11:10:37.514Z,10.30
2022-09-20T11:13:14.201Z,9.85
2022-09-20T11:15:52.102Z,10.65
2022-09-20T11:18:25.874Z,8.25
2022-09-20T11:21:07.593Z,7.63
2022-09-20T11:23:49.224Z,10.52
2022-09-20T11:26:26.721Z,9.02
2022-09-20T11:29:04.154Z,6.80
2022-09-20T11:31:39.515Z,6.80
2022-09-20T11:34:15.540Z,8.23
2022-09-20T11:36:53.183Z,5.68
2022-09-20T11:39:29.738Z,7.15
2022-09-20T11:42:01.319Z,8.60
2022-09-20T11:44:31.611Z,5.55
2022-09-20T11:47:02.868Z,6.82
2022-09-20T11:49:44.964Z,8.23
2022-09-20T11:52:37.215Z,5.03
2022-09-20T11:55:26.133Z,6.70
2022-09-20T11:58:08.123Z,7.15
2022-09-20T12:00:42.529Z,6.35
2022-09-20T12:03:25.142Z,5.82
2022-09-20T12:05:59.960Z,5.93
2022-09-20T12:08:31.741Z,5.95
2022-09-20T12:11:04.445Z,6.55
2022-09-20T12:13:36.430Z,5.40
2022-09-20T12:16:08.677Z,6.80
2022-09-20T12:19:08.054Z,5.43
2022-09-20T12:22:06.046Z,5.78
2022-09-20T12:24:35.821Z,5.38
2022-09-20T12:27:21.327Z,7.05
2022-09-20T12:30:16.163Z,4.47
2022-09-20T12:32:52.097Z,4.20
2022-09-20T12:36:00.083Z,4.78
2022-09-20T12:38:32.138Z,4.20
2022-09-20T12:41:03.387Z,3.30
2022-09-20T12:43:33.995Z,3.55
2022-09-20T12:46:06.443Z,5.90
2022-09-20T12:48:39.095Z,4.13
2022-09-20T12:51:37.678Z,7.65
2022-09-20T12:54:08.396Z,4.88
2022-09-20T12:56:38.886Z,7.28
2022-09-20T12:59:21.131Z,8.65
2022-09-20T13:01:49.312Z,6.90
2022-09-20T13:04:57.115Z,6.80
2022-09-20T13:07:58.159Z,7.00
2022-09-20T13:10:39.978Z,6.00
2022-09-20T13:13:17.946Z,4.55
2022-09-20T13:15:52.570Z,7.25
2022-09-20T13:18:22.236Z,5.30
2022-09-20T13:20:51.853Z,29.55
2022-09-20T13:23:27.732Z,12.30
2022-09-20T13:25:58.761Z,6.05
2022-09-20T13:28:35.886Z,3.20
2022-09-20T13:31:33.896Z,4.75
2022-09-20T13:34:24.374Z,5.65
2022-09-20T13:36:58.955Z,5.28
2022-09-20T13:39:35.189Z,5.82
2022-09-20T13:42:08.096Z,4.75
2022-09-20T13:44:37.480Z,8.32
2022-09-20T13:47:23.674Z,5.82
2022-09-20T13:49:52.004Z,6.95
2022-09-20T13:52:26.178Z,4.82
2022-09-20T13:54:56.262Z,11.43
2022-09-20T13:57:28.126Z,3.00
2022-09-20T13:59:58.246Z,7.93
2022-09-20T14:02:32.765Z,8.85
2022-09-20T14:05:02.947Z,8.15
2022-09-20T14:07:31.759Z,3.83
2022-09-20T14:10:01.684Z,5.22
2022-09-20T14:12:30.091Z,6.85
2022-09-20T14:14:59.535Z,4.40
2022-09-20T14:17:33.651Z,7.45
2022-09-20T14:20:02.328Z,6.30
2022-09-20T14:22:31.003Z,7.78
2022-09-20T14:25:19.573Z,2.30
2022-09-20T14:27:47.673Z,3.33
2022-09-20T14:30:32.798Z,2.67
2022-09-20T14:33:01.280Z,1.50
2022-09-20T14:35:29.455Z,5.50
2022-09-20T14:38:00.501Z,5.97
2022-09-20T14:40:32.399Z,6.70
2022-09-20T14:43:02.585Z,1.90
2022-09-20T14:45:32.826Z,4.63
2022-09-20T14:48:09.556Z,3.67
2022-09-20T14:50:41.043Z,2.33
2022-09-20T14:53:27.745Z,2.30
2022-09-20T14:56:08.947Z,4.60
2022-09-20T14:59:21.974Z,1.67
2022-09-20T15:02:05.128Z,2.42
2022-09-20T15:04:35.481Z,1.95
2022-09-20T15:07:05.057Z,4.60
2022-09-20T15:09:35.219Z,2.42
2022-09-20T15:12:07.284Z,3.38
2022-09-20T15:14:37.751Z,6.72
2022-09-20T15:17:07.103Z,2.42
2022-09-20T15:19:35.232Z,2.85
2022-09-20T15:22:03.648Z,3.78
2022-09-20T15:24:31.812Z,2.33
2022-09-20T15:27:00.028Z,4.95
2022-09-20T15:29:32.530Z,3.47
2022-09-20T15:32:00.915Z,4.45
2022-09-20T15:34:29.134Z,6.50
2022-09-20T15:36:57.218Z,6.63
2022-09-20T15:39:25.604Z,4.80
2022-09-20T15:41:54.199Z,2.08
2022-09-20T15:44:22.355Z,2.42
2022-09-20T15:46:53.385Z,1.27
2022-09-20T15:49:39.586Z,2.15
2022-09-20T15:52:07.949Z,6.53
2022-09-20T15:54:36.877Z,1.95
2022-09-20T15:57:05.601Z,1.40
2022-09-20T15:59:34.544Z,4.05
2022-09-20T16:02:05.709Z,2.17
2022-09-20T16:04:35.124Z,2.53
2022-09-20T16:07:05.967Z,3.45
2022-09-20T16:09:38.152Z,2.85
2022-09-20T16:12:07.327Z,3.05
2022-09-20T16:14:37.737Z,3.55
2022-09-20T16:17:07.462Z,3.95
2022-09-20T16:19:34.803Z,3.53
2022-09-20T16:22:03.226Z,4.88
2022-09-20T16:24:34.125Z,7.47
2022-09-20T16:27:04.380Z,3.53
2022-09-20T16:29:33.074Z,2.85
2022-09-20T16:32:05.646Z,4.25
2022-09-20T16:34:37.679Z,6.40
2022-09-20T16:37:09.024Z,6.65
2022-09-20T16:43:38.582Z,10.63
2022-09-20T17:08:23.968Z,31.30
2022-09-20T17:10:55.478Z,42.53
2022-09-20T17:36:45.324Z,32.33
2022-09-20T17:39:22.231Z,29.23
2022-09-20T17:52:45.657Z,23.73
2022-09-20T17:55:25.837Z,23.83
2022-09-20T17:57:54.230Z,22.35
2022-09-20T18:00:31.843Z,24.33
2022-09-20T18:03:04.152Z,27.52
2022-09-20T18:05:33.925Z,29.00
2022-09-20T18:08:05.847Z,24.23
2022-09-20T18:10:44.768Z,28.23
2022-09-20T18:13:14.330Z,27.38
2022-09-20T18:15:45.797Z,24.92
2022-09-20T18:18:16.319Z,26.23
2022-09-20T18:21:31.311Z,26.67
2022-09-20T18:24:06.245Z,29.92
2022-09-20T18:26:48.875Z,28.40
2022-09-20T18:29:21.444Z,30.13
2022-09-20T18:31:52.544Z,32.25
2022-09-20T18:34:24.937Z,33.85
2022-09-20T18:36:55.227Z,36.50
2022-09-20T18:39:26.562Z,39.35
2022-09-20T18:41:57.482Z,32.53
2022-09-20T18:44:26.384Z,30.98
2022-09-20T18:46:55.551Z,31.60
2022-09-20T18:49:26.077Z,30.20
2022-09-20T18:51:57.033Z,32.20
2022-09-20T18:54:25.685Z,33.22
2022-09-20T18:56:56.280Z,27.00
2022-09-20T18:59:26.900Z,32.08
2022-09-20T19:02:20.363Z,29.85
2022-09-20T19:05:00.776Z,30.65
2022-09-20T19:07:39.741Z,29.98
2022-09-20T19:10:20.672Z,29.67
2022-09-20T19:12:59.179Z,31.30
2022-09-20T19:15:45.296Z,33.90
2022-09-20T19:18:31.804Z,31.17
2022-09-20T19:21:08.611Z,32.03
2022-09-20T19:24:25.094Z,31.75
2022-09-20T19:26:54.145Z,31.42
2022-09-20T19:29:31.040Z,29.98
2022-09-20T19:32:01.192Z,34.47
2022-09-20T19:34:33.234Z,34.10
2022-09-20T19:37:30.525Z,34.20
2022-09-20T19:40:19.028Z,32.03
2022-09-20T19:42:57.050Z,28.98
2022-09-20T19:45:38.363Z,29.95
2022-09-20T19:48:15.268Z,28.70
2022-09-20T19:50:46.557Z,25.60
2022-09-20T19:53:17.057Z,20.60
2022-09-20T19:55:48.772Z,21.02
2022-09-20T19:58:18.063Z,22.88
2022-09-20T20:00:48.739Z,23.05
2022-09-20T20:03:19.000Z,24.48
2022-09-20T20:05:53.202Z,26.58
2022-09-20T20:08:25.399Z,23.38
2022-09-20T20:11:02.283Z,23.35
2022-09-20T20:13:55.882Z,25.73
2022-09-20T20:16:33.206Z,25.80
2022-09-20T20:19:18.342Z,30.15
2022-09-20T20:21:53.730Z,29.52
2022-09-20T20:24:31.986Z,28.48
2022-09-20T20:27:01.678Z,36.10
2022-09-20T20:29:30.159Z,33.47
2022-09-20T20:32:03.922Z,32.55
2022-09-20T20:34:34.563Z,30.73
2022-09-20T20:37:03.247Z,38.65
2022-09-20T20:39:32.236Z,35.22
2022-09-20T20:42:02.439Z,32.08
2022-09-20T20:44:31.864Z,31.27
2022-09-20T20:47:01.915Z,30.77
2022-09-20T20:49:30.311Z,32.58
2022-09-20T20:51:59.718Z,28.40
2022-09-20T20:54:27.951Z,29.35
2022-09-20T20:56:57.917Z,30.65
2022-09-20T20:59:27.658Z,27.95
2022-09-20T21:01:56.526Z,30.83
2022-09-20T21:04:28.526Z,41.72
2022-09-20T21:06:58.616Z,51.92
2022-09-20T21:09:27.530Z,55.45
2022-09-20T21:11:55.833Z,48.63
2022-09-20T21:14:24.574Z,43.85
2022-09-20T21:16:53.542Z,39.80
2022-09-20T21:19:23.107Z,42.30
2022-09-20T21:21:52.683Z,40.90
2022-09-20T21:24:22.213Z,36.53
2022-09-20T21:26:51.050Z,34.03
2022-09-20T21:29:19.708Z,32.35
2022-09-20T21:31:48.304Z,31.13
2022-09-20T21:34:17.514Z,35.33
2022-09-20T21:36:46.345Z,36.10
2022-09-20T21:39:15.944Z,35.17
2022-09-20T21:41:44.933Z,30.70
2022-09-20T21:44:14.286Z,31.58
2022-09-20T21:46:43.556Z,28.90
2022-09-20T21:49:13.193Z,24.95
2022-09-20T21:51:44.008Z,26.50
2022-09-20T21:54:12.469Z,29.75
2022-09-20T21:56:42.313Z,26.05
2022-09-20T21:59:10.594Z,29.50
2022-09-20T22:01:41.424Z,26.33
2022-09-20T22:04:11.839Z,28.80
2022-09-20T22:06:42.147Z,26.20
2022-09-20T22:09:12.135Z,30.20
